createdAt,value
2022-08-26T00:02:07.115Z,21.00
2022-08-26T00:04:35.208Z,20.90
2022-08-26T00:07:03.185Z,20.90
2022-08-26T00:09:38.912Z,20.80
2022-08-26T00:12:12.277Z,20.70
2022-08-26T00:14:41.097Z,20.60
2022-08-26T00:17:09.546Z,20.50
2022-08-26T00:19:37.845Z,20.50
2022-08-26T00:22:06.012Z,20.40
2022-08-26T00:24:33.985Z,20.20
2022-08-26T00:27:01.993Z,20.20
2022-08-26T00:29:34.942Z,20.10
2022-08-26T00:32:06.326Z,20.10
2022-08-26T00:34:34.714Z,20.00
2022-08-26T00:37:02.736Z,20.00
2022-08-26T00:39:31.760Z,20.00
2022-08-26T00:42:00.467Z,20.10
2022-08-26T00:44:28.601Z,20.20
2022-08-26T00:47:01.929Z,20.20
2022-08-26T00:49:39.840Z,20.20
2022-08-26T00:52:13.069Z,20.20
2022-08-26T00:54:47.376Z,20.10
2022-08-26T00:57:19.155Z,20.00
2022-08-26T00:59:51.961Z,20.00
2022-08-26T01:02:21.917Z,19.90
2022-08-26T01:04:55.490Z,19.70
2022-08-26T01:07:25.253Z,19.70
2022-08-26T01:09:53.295Z,19.70
2022-08-26T01:12:22.732Z,19.70
2022-08-26T01:14:51.188Z,19.70
2022-08-26T01:17:21.090Z,19.80
2022-08-26T01:19:53.900Z,19.80
2022-08-26T01:22:28.729Z,19.90
2022-08-26T01:24:59.576Z,20.00
2022-08-26T01:27:32.410Z,20.10
2022-08-26T01:30:02.170Z,20.20
2022-08-26T01:32:32.667Z,20.20
2022-08-26T01:35:01.409Z,20.20
2022-08-26T01:37:34.119Z,20.20
2022-08-26T01:40:05.959Z,20.20
2022-08-26T01:42:34.951Z,20.20
2022-08-26T01:45:11.197Z,20.20
2022-08-26T01:47:40.083Z,20.20
2022-08-26T01:50:15.607Z,20.10
2022-08-26T01:52:49.864Z,20.10
2022-08-26T01:55:25.546Z,19.90
2022-08-26T01:58:05.331Z,19.80
2022-08-26T02:00:35.196Z,19.70
2022-08-26T02:03:18.061Z,19.60
2022-08-26T02:05:57.711Z,19.50
2022-08-26T02:08:32.004Z,19.50
2022-08-26T02:11:02.401Z,19.40
2022-08-26T02:13:32.084Z,19.20
2022-08-26T02:16:01.861Z,19.00
2022-08-26T02:18:32.625Z,18.90
2022-08-26T02:21:00.885Z,18.80
2022-08-26T02:23:29.131Z,18.80
2022-08-26T02:26:02.008Z,18.80
2022-08-26T02:28:38.254Z,18.80
2022-08-26T02:31:06.521Z,18.80
2022-08-26T02:33:36.247Z,18.90
2022-08-26T02:36:05.603Z,19.00
2022-08-26T02:38:36.528Z,19.00
2022-08-26T02:41:05.711Z,19.10
2022-08-26T02:43:37.401Z,19.20
2022-08-26T02:46:05.846Z,19.20
2022-08-26T02:48:35.220Z,19.20
2022-08-26T02:51:04.451Z,19.20
2022-08-26T02:53:35.503Z,19.00
2022-08-26T02:56:04.405Z,19.00
2022-08-26T02:58:32.458Z,19.00
2022-08-26T03:01:02.407Z,18.90
2022-08-26T03:03:33.374Z,18.90
2022-08-26T03:06:01.472Z,18.90
2022-08-26T03:08:29.424Z,18.80
2022-08-26T03:10:57.357Z,18.70
2022-08-26T03:13:25.338Z,18.60
2022-08-26T03:15:53.356Z,18.50
2022-08-26T03:18:22.712Z,18.50
2022-08-26T03:20:51.950Z,18.50
2022-08-26T03:23:19.863Z,18.40
2022-08-26T03:25:50.847Z,18.40
2022-08-26T03:28:19.487Z,18.30
2022-08-26T03:30:49.080Z,18.20
2022-08-26T03:33:17.056Z,18.10
2022-08-26T03:35:50.512Z,18.00
2022-08-26T03:38:22.357Z,17.90
2022-08-26T03:40:50.507Z,17.90
2022-08-26T03:43:20.042Z,18.00
2022-08-26T03:45:48.006Z,18.10
2022-08-26T03:48:15.977Z,18.10
2022-08-26T03:50:44.026Z,18.20
2022-08-26T03:53:13.491Z,18.30
2022-08-26T03:55:41.964Z,18.40
2022-08-26T03:58:11.181Z,18.50
2022-08-26T04:00:39.322Z,18.60
2022-08-26T04:03:09.740Z,18.60
2022-08-26T04:05:38.900Z,18.60
2022-08-26T04:08:07.104Z,18.60
2022-08-26T04:10:38.997Z,18.70
2022-08-26T04:13:07.529Z,18.70
2022-08-26T04:15:35.667Z,18.80
2022-08-26T04:18:04.256Z,18.90
2022-08-26T04:20:32.502Z,19.00
2022-08-26T04:23:00.796Z,19.10
2022-08-26T04:25:28.739Z,19.20
2022-08-26T04:27:58.110Z,19.20
2022-08-26T04:30:26.120Z,19.30
2022-08-26T04:32:54.002Z,19.40
2022-08-26T04:35:25.799Z,19.40
2022-08-26T04:37:55.340Z,19.50
2022-08-26T04:40:23.709Z,19.50
2022-08-26T04:42:51.679Z,19.50
2022-08-26T04:45:22.870Z,19.50
2022-08-26T04:47:54.660Z,19.60
2022-08-26T04:50:23.648Z,19.50
2022-08-26T04:52:52.932Z,19.50
2022-08-26T04:55:20.862Z,19.40
2022-08-26T04:58:08.773Z,19.40
2022-08-26T05:00:40.279Z,19.30
2022-08-26T05:03:10.495Z,19.30
2022-08-26T05:05:39.952Z,19.10
2022-08-26T05:08:08.363Z,19.00
2022-08-26T05:10:41.549Z,18.90
2022-08-26T05:13:11.175Z,18.80
2022-08-26T05:15:40.946Z,18.80
2022-08-26T05:18:10.652Z,18.80
2022-08-26T05:20:41.838Z,18.80
2022-08-26T05:23:10.141Z,18.70
2022-08-26T05:25:41.388Z,18.60
2022-08-26T05:28:10.716Z,18.50
2022-08-26T05:30:41.130Z,18.40
2022-08-26T05:33:10.289Z,18.40
2022-08-26T05:35:39.342Z,18.30
2022-08-26T05:38:12.673Z,18.40
2022-08-26T05:40:44.511Z,18.50
2022-08-26T05:43:13.994Z,18.60
2022-08-26T05:45:45.472Z,18.70
2022-08-26T05:48:14.642Z,18.80
2022-08-26T05:50:46.419Z,18.80
2022-08-26T05:53:17.515Z,18.90
2022-08-26T05:55:49.220Z,18.90
2022-08-26T05:58:20.122Z,19.00
2022-08-26T06:00:58.488Z,19.10
2022-08-26T06:03:26.476Z,19.20
2022-08-26T06:05:55.136Z,19.40
2022-08-26T06:08:23.203Z,19.60
2022-08-26T06:10:54.469Z,19.70
2022-08-26T06:13:25.589Z,19.90
2022-08-26T06:15:55.898Z,20.00
2022-08-26T06:18:27.311Z,20.10
2022-08-26T06:20:58.373Z,20.30
2022-08-26T06:23:45.865Z,20.40
2022-08-26T06:26:16.307Z,20.50
2022-08-26T06:28:45.587Z,20.70
2022-08-26T06:31:16.098Z,20.90
2022-08-26T06:33:44.674Z,21.00
2022-08-26T06:36:18.683Z,21.20
2022-08-26T06:38:47.421Z,21.30
2022-08-26T06:41:15.443Z,21.40
2022-08-26T06:43:43.532Z,21.60
2022-08-26T06:46:15.639Z,21.70
2022-08-26T06:48:43.638Z,21.80
2022-08-26T06:51:14.060Z,21.90
2022-08-26T06:53:45.478Z,22.00
2022-08-26T06:56:15.061Z,22.20
2022-08-26T06:58:43.502Z,22.30
2022-08-26T07:01:21.091Z,22.30
2022-08-26T07:03:50.569Z,22.50
2022-08-26T07:06:19.544Z,22.60
2022-08-26T07:08:47.504Z,22.70
2022-08-26T07:11:15.746Z,22.80
2022-08-26T07:13:44.804Z,23.00
2022-08-26T07:16:16.346Z,23.10
2022-08-26T07:18:46.864Z,23.20
2022-08-26T07:21:17.184Z,23.30
2022-08-26T07:23:46.180Z,23.40
2022-08-26T07:26:17.125Z,23.40
2022-08-26T07:28:46.697Z,23.40
2022-08-26T07:31:16.330Z,23.40
2022-08-26T07:33:46.379Z,23.40
2022-08-26T07:36:15.584Z,23.50
2022-08-26T07:38:45.142Z,23.50
2022-08-26T07:41:14.320Z,23.60
2022-08-26T07:43:42.638Z,23.60
2022-08-26T07:46:16.307Z,23.80
2022-08-26T07:48:46.051Z,24.00
2022-08-26T07:51:14.936Z,24.30
2022-08-26T07:53:43.186Z,24.50
2022-08-26T07:56:11.213Z,24.80
2022-08-26T07:58:39.467Z,25.10
2022-08-26T08:01:08.397Z,25.50
2022-08-26T08:03:36.577Z,26.00
2022-08-26T08:06:06.306Z,26.60
2022-08-26T08:08:35.462Z,27.10
2022-08-26T08:11:03.773Z,27.50
2022-08-26T08:13:33.901Z,28.00
2022-08-26T08:16:01.816Z,28.50
2022-08-26T08:18:29.804Z,28.90
2022-08-26T08:21:10.850Z,29.30
2022-08-26T08:23:48.400Z,29.50
2022-08-26T08:26:16.900Z,29.70
2022-08-26T08:28:46.248Z,30.00
2022-08-26T08:31:54.376Z,30.40
2022-08-26T08:34:11.956Z,30.60
2022-08-26T08:36:39.992Z,30.80
2022-08-26T08:39:11.619Z,30.80
2022-08-26T08:41:54.127Z,31.10
2022-08-26T08:47:02.392Z,31.70
2022-08-26T08:49:31.982Z,31.70
2022-08-26T08:52:06.299Z,31.90
2022-08-26T08:54:35.607Z,32.10
2022-08-26T08:57:12.471Z,32.20
2022-08-26T08:59:50.816Z,32.40
2022-08-26T09:02:25.733Z,32.60
2022-08-26T09:05:06.443Z,32.60
2022-08-26T09:07:39.077Z,33.00
2022-08-26T09:10:32.684Z,33.20
2022-08-26T09:13:02.672Z,33.00
2022-08-26T09:15:42.732Z,32.50
2022-08-26T09:18:20.247Z,32.50
2022-08-26T09:20:55.028Z,32.60
2022-08-26T09:23:22.963Z,32.90
2022-08-26T09:25:57.115Z,33.30
2022-08-26T09:28:27.453Z,33.20
2022-08-26T09:31:07.923Z,33.30
2022-08-26T09:33:39.257Z,33.40
2022-08-26T09:36:23.017Z,33.60
2022-08-26T09:38:54.069Z,33.20
2022-08-26T09:41:31.673Z,32.80
2022-08-26T09:44:17.883Z,32.50
2022-08-26T09:46:55.232Z,32.60
2022-08-26T09:49:29.837Z,33.00
2022-08-26T09:52:12.389Z,33.40
2022-08-26T09:54:41.149Z,33.80
2022-08-26T09:57:21.066Z,34.00
2022-08-26T09:59:51.121Z,34.40
2022-08-26T10:02:37.872Z,34.60
2022-08-26T10:05:11.041Z,35.00
2022-08-26T10:07:44.320Z,35.30
2022-08-26T10:10:21.045Z,35.40
2022-08-26T10:13:02.998Z,35.10
2022-08-26T10:15:40.443Z,35.10
2022-08-26T10:18:20.807Z,35.30
2022-08-26T10:20:57.028Z,35.50
2022-08-26T10:23:30.295Z,35.30
2022-08-26T10:26:05.263Z,35.30
2022-08-26T10:28:41.105Z,35.60
2022-08-26T10:31:27.777Z,35.70
2022-08-26T10:34:00.450Z,35.20
2022-08-26T10:37:13.588Z,35.00
2022-08-26T10:39:44.392Z,35.20
2022-08-26T10:42:20.399Z,35.20
2022-08-26T10:44:53.825Z,35.30
2022-08-26T10:47:34.243Z,35.20
2022-08-26T10:50:03.657Z,35.00
2022-08-26T10:52:48.034Z,34.90
2022-08-26T10:55:23.469Z,35.00
2022-08-26T10:58:00.429Z,35.30
2022-08-26T11:00:59.405Z,35.30
2022-08-26T11:03:35.361Z,35.20
2022-08-26T11:06:37.109Z,35.40
2022-08-26T11:09:07.865Z,35.50
2022-08-26T11:11:50.622Z,35.70
2022-08-26T11:14:53.566Z,35.80
2022-08-26T11:18:05.282Z,35.90
2022-08-26T11:20:41.581Z,36.20
2022-08-26T11:23:39.268Z,36.20
2022-08-26T11:26:35.382Z,36.60
2022-08-26T11:29:03.800Z,36.60
2022-08-26T11:31:54.657Z,36.80
2022-08-26T11:34:57.155Z,36.80
2022-08-26T11:37:33.488Z,36.70
2022-08-26T11:40:02.764Z,36.90
2022-08-26T11:42:37.481Z,36.50
2022-08-26T11:45:19.282Z,36.30
2022-08-26T11:47:49.270Z,36.20
2022-08-26T11:50:23.322Z,36.20
2022-08-26T11:52:56.378Z,36.20
2022-08-26T11:55:25.292Z,36.20
2022-08-26T11:57:56.909Z,36.30
2022-08-26T12:00:33.739Z,36.30
2022-08-26T12:03:07.297Z,36.20
2022-08-26T12:05:44.636Z,36.00
2022-08-26T12:08:15.748Z,36.10
2022-08-26T12:10:43.841Z,36.20
2022-08-26T12:13:22.569Z,36.20
2022-08-26T12:15:55.638Z,35.90
2022-08-26T12:18:29.048Z,35.80
2022-08-26T12:21:00.741Z,35.70
2022-08-26T12:23:43.396Z,35.80
2022-08-26T12:26:19.351Z,36.00
2022-08-26T12:28:49.703Z,35.90
2022-08-26T12:31:40.556Z,35.40
2022-08-26T12:34:17.721Z,35.20
2022-08-26T12:36:50.087Z,35.10
2022-08-26T12:39:27.616Z,34.80
2022-08-26T12:41:58.078Z,34.80
2022-08-26T12:44:34.032Z,34.50
2022-08-26T12:47:09.206Z,34.70
2022-08-26T12:49:39.351Z,35.20
2022-08-26T12:52:29.774Z,35.30
2022-08-26T12:55:02.427Z,35.40
2022-08-26T12:57:35.081Z,35.20
2022-08-26T13:00:32.647Z,35.30
2022-08-26T13:03:02.532Z,35.40
2022-08-26T13:05:35.019Z,35.50
2022-08-26T13:08:16.613Z,35.70
2022-08-26T13:10:46.692Z,35.90
2022-08-26T13:13:15.043Z,35.90
2022-08-26T13:15:42.954Z,36.00
2022-08-26T13:18:11.372Z,36.10
2022-08-26T13:20:43.996Z,35.70
2022-08-26T13:23:13.969Z,35.60
2022-08-26T13:25:42.257Z,35.70
2022-08-26T13:28:10.194Z,35.90
2022-08-26T13:30:38.225Z,36.20
2022-08-26T13:33:09.005Z,36.00
2022-08-26T13:35:40.381Z,35.90
2022-08-26T13:38:14.783Z,36.10
2022-08-26T13:41:06.090Z,35.80
2022-08-26T13:43:34.385Z,35.60
2022-08-26T13:46:02.650Z,35.40
2022-08-26T13:48:31.531Z,35.00
2022-08-26T13:51:00.199Z,34.90
2022-08-26T13:53:29.435Z,34.70
2022-08-26T13:55:57.510Z,34.30
2022-08-26T13:58:27.804Z,34.00
2022-08-26T14:00:56.954Z,33.90
2022-08-26T14:03:25.662Z,34.00
2022-08-26T14:05:54.353Z,34.00
2022-08-26T14:08:22.811Z,34.00
2022-08-26T14:10:51.158Z,33.60
2022-08-26T14:13:19.430Z,33.60
2022-08-26T14:15:48.878Z,33.50
2022-08-26T14:18:21.830Z,33.70
2022-08-26T14:20:52.124Z,33.30
2022-08-26T14:23:20.556Z,33.10
2022-08-26T14:25:50.020Z,33.00
2022-08-26T14:28:18.223Z,32.80
2022-08-26T14:30:51.954Z,32.60
2022-08-26T14:33:24.300Z,32.40
2022-08-26T14:35:52.200Z,32.30
2022-08-26T14:38:20.304Z,32.10
2022-08-26T14:40:48.275Z,31.90
2022-08-26T14:43:16.213Z,31.60
2022-08-26T14:45:45.646Z,31.40
2022-08-26T14:48:15.036Z,31.10
2022-08-26T14:50:43.134Z,30.90
2022-08-26T14:53:28.849Z,30.70
2022-08-26T14:55:56.813Z,30.60
2022-08-26T14:58:24.731Z,30.40
2022-08-26T15:00:56.811Z,30.30
2022-08-26T15:03:27.800Z,30.20
2022-08-26T15:05:55.996Z,30.10
2022-08-26T15:08:23.967Z,30.00
2022-08-26T15:10:51.932Z,30.00
2022-08-26T15:13:19.839Z,29.90
2022-08-26T15:15:47.956Z,29.80
2022-08-26T15:18:16.072Z,29.60
2022-08-26T15:20:45.580Z,29.40
2022-08-26T15:23:13.520Z,29.30
2022-08-26T15:25:43.323Z,29.00
2022-08-26T15:28:11.370Z,28.70
2022-08-26T15:30:39.707Z,28.40
2022-08-26T15:33:14.989Z,28.20
2022-08-26T15:35:44.974Z,28.10
2022-08-26T15:38:13.543Z,28.00
2022-08-26T15:40:41.578Z,27.90
2022-08-26T15:43:25.719Z,27.90
2022-08-26T15:45:56.261Z,27.80
2022-08-26T15:48:26.113Z,27.80
2022-08-26T15:50:57.562Z,27.70
2022-08-26T15:53:26.138Z,27.60
2022-08-26T15:55:56.307Z,27.60
2022-08-26T15:58:26.983Z,27.40
2022-08-26T16:00:56.282Z,27.30
2022-08-26T16:03:24.275Z,27.20
2022-08-26T16:05:52.257Z,27.00
2022-08-26T16:08:22.321Z,26.80
2022-08-26T16:10:51.254Z,26.70
2022-08-26T16:13:20.875Z,26.60
2022-08-26T16:15:49.296Z,26.50
2022-08-26T16:18:17.700Z,26.40
2022-08-26T16:21:12.670Z,26.30
2022-08-26T16:23:45.179Z,26.30
2022-08-26T16:26:16.615Z,26.20
2022-08-26T16:28:45.143Z,26.20
2022-08-26T16:31:13.518Z,26.20
2022-08-26T16:33:41.611Z,26.20
2022-08-26T16:36:10.505Z,26.20
2022-08-26T16:38:40.878Z,26.10
2022-08-26T16:41:09.325Z,26.10
2022-08-26T16:43:37.672Z,26.10
2022-08-26T16:46:07.958Z,26.10
2022-08-26T16:48:36.199Z,26.10
2022-08-26T16:51:04.433Z,26.00
2022-08-26T16:53:33.512Z,26.00
2022-08-26T16:56:02.739Z,26.00
2022-08-26T16:58:31.253Z,26.00
2022-08-26T17:00:59.134Z,26.10
2022-08-26T17:03:27.508Z,26.10
2022-08-26T17:05:55.429Z,26.10
2022-08-26T17:08:27.551Z,26.10
2022-08-26T17:11:00.329Z,26.00
2022-08-26T17:13:35.170Z,25.90
2022-08-26T17:16:05.281Z,25.80
2022-08-26T17:18:33.699Z,25.80
2022-08-26T17:21:03.311Z,25.70
2022-08-26T17:23:31.346Z,25.60
2022-08-26T17:25:59.519Z,25.60
2022-08-26T17:28:28.851Z,25.50
2022-08-26T17:30:57.659Z,25.40
2022-08-26T17:33:26.656Z,25.40
2022-08-26T17:35:55.150Z,25.30
2022-08-26T17:38:23.227Z,25.30
2022-08-26T17:40:51.492Z,25.30
2022-08-26T17:43:19.796Z,25.20
2022-08-26T17:45:49.411Z,25.10
2022-08-26T17:48:18.133Z,25.10
2022-08-26T17:50:49.694Z,25.00
2022-08-26T17:53:18.661Z,25.00
2022-08-26T17:55:47.346Z,25.00
2022-08-26T17:58:17.099Z,25.00
2022-08-26T18:00:45.660Z,25.00
2022-08-26T18:03:15.209Z,25.00
2022-08-26T18:05:48.460Z,24.90
2022-08-26T18:08:16.368Z,24.90
2022-08-26T18:10:45.043Z,24.90
2022-08-26T18:13:14.713Z,24.80
2022-08-26T18:15:43.858Z,24.70
2022-08-26T18:18:11.902Z,24.70
2022-08-26T18:20:42.563Z,24.60
2022-08-26T18:23:10.938Z,24.70
2022-08-26T18:25:41.091Z,24.60
2022-08-26T18:28:09.057Z,24.50
2022-08-26T18:30:37.092Z,24.50
2022-08-26T18:33:05.124Z,24.40
2022-08-26T18:35:33.095Z,24.40
2022-08-26T18:38:11.072Z,24.40
2022-08-26T18:40:40.769Z,24.40
2022-08-26T18:43:08.974Z,24.30
2022-08-26T18:45:37.106Z,24.40
2022-08-26T18:48:06.336Z,24.20
2022-08-26T18:50:34.353Z,24.20
2022-08-26T18:53:03.908Z,24.20
2022-08-26T18:55:31.862Z,24.20
2022-08-26T18:57:59.809Z,24.10
2022-08-26T19:00:28.188Z,24.10
2022-08-26T19:02:56.548Z,24.10
2022-08-26T19:05:25.435Z,24.00
2022-08-26T19:07:53.388Z,24.00
2022-08-26T19:10:22.666Z,24.00
2022-08-26T19:12:51.828Z,24.00
2022-08-26T19:15:20.402Z,23.90
2022-08-26T19:17:48.436Z,23.90
2022-08-26T19:20:16.735Z,23.90
2022-08-26T19:22:45.914Z,23.90
2022-08-26T19:25:13.992Z,23.80
2022-08-26T19:27:43.302Z,23.90
2022-08-26T19:30:12.006Z,23.80
2022-08-26T19:32:39.913Z,23.80
2022-08-26T19:35:08.973Z,23.80
2022-08-26T19:37:37.185Z,23.80
2022-08-26T19:40:06.432Z,23.80
2022-08-26T19:42:34.694Z,23.80
2022-08-26T19:45:24.885Z,23.70
2022-08-26T19:47:53.947Z,23.70
2022-08-26T19:50:22.667Z,23.70
2022-08-26T19:52:50.634Z,23.70
2022-08-26T19:55:20.739Z,23.70
2022-08-26T19:57:49.523Z,23.60
2022-08-26T20:00:23.514Z,23.60
2022-08-26T20:02:52.426Z,23.60
2022-08-26T20:05:22.739Z,23.60
2022-08-26T20:07:51.461Z,23.60
2022-08-26T20:10:22.765Z,23.50
2022-08-26T20:12:52.374Z,23.50
2022-08-26T20:15:23.026Z,23.50
2022-08-26T20:17:51.317Z,23.50
2022-08-26T20:20:34.020Z,23.50
2022-08-26T20:23:05.147Z,23.50
2022-08-26T20:25:33.839Z,23.50
2022-08-26T20:28:02.027Z,23.40
2022-08-26T20:30:31.349Z,23.40
2022-08-26T20:32:59.320Z,23.40
2022-08-26T20:35:27.362Z,23.40
2022-08-26T20:37:55.313Z,23.40
2022-08-26T20:40:23.429Z,23.40
2022-08-26T20:42:51.431Z,23.40
2022-08-26T20:45:19.516Z,23.30
2022-08-26T20:47:48.813Z,23.30
2022-08-26T20:50:16.723Z,23.20
2022-08-26T20:52:44.671Z,23.10
2022-08-26T20:55:12.916Z,23.00
2022-08-26T20:57:42.002Z,22.90
2022-08-26T21:00:12.135Z,22.80
2022-08-26T21:02:42.020Z,22.60
2022-08-26T21:05:11.641Z,22.60
2022-08-26T21:07:39.617Z,22.50
2022-08-26T21:10:08.135Z,22.40
2022-08-26T21:12:36.683Z,22.40
2022-08-26T21:15:05.749Z,22.30
2022-08-26T21:17:33.989Z,22.30
2022-08-26T21:20:02.381Z,22.20
2022-08-26T21:22:31.804Z,22.20
2022-08-26T21:25:02.137Z,22.10
2022-08-26T21:27:30.076Z,22.10
2022-08-26T21:29:58.146Z,22.00
2022-08-26T21:32:26.101Z,22.10
2022-08-26T21:34:56.901Z,22.00
2022-08-26T21:37:25.384Z,22.00
2022-08-26T21:39:56.070Z,21.90
2022-08-26T21:42:25.463Z,21.90
2022-08-26T21:44:54.295Z,21.90
2022-08-26T21:47:22.250Z,21.80
2022-08-26T21:49:50.349Z,21.80
2022-08-26T21:52:18.570Z,21.80
2022-08-26T21:54:49.401Z,21.80
2022-08-26T21:57:19.413Z,21.80
2022-08-26T21:59:47.374Z,21.70
2022-08-26T22:02:15.601Z,21.70
2022-08-26T22:04:48.155Z,21.70
2022-08-26T22:07:18.177Z,21.70
2022-08-26T22:09:46.746Z,21.70
2022-08-26T22:12:18.204Z,21.70
2022-08-26T22:14:48.070Z,21.70
2022-08-26T22:17:16.898Z,21.70
2022-08-26T22:19:46.343Z,21.70
2022-08-26T22:22:14.852Z,21.70
2022-08-26T22:24:43.886Z,21.70
2022-08-26T22:27:12.892Z,21.70
2022-08-26T22:29:40.932Z,21.70
2022-08-26T22:32:10.282Z,21.70
2022-08-26T22:34:38.404Z,21.70
2022-08-26T22:37:06.612Z,21.70
2022-08-26T22:39:34.588Z,21.70
2022-08-26T22:42:03.583Z,21.60
2022-08-26T22:44:32.700Z,21.60
2022-08-26T22:47:01.287Z,21.60
2022-08-26T22:49:30.987Z,21.60
2022-08-26T22:51:58.951Z,21.50
2022-08-26T22:54:26.926Z,21.50
2022-08-26T22:56:56.003Z,21.40
2022-08-26T22:59:24.435Z,21.40
2022-08-26T23:01:52.692Z,21.30
2022-08-26T23:04:21.012Z,21.20
2022-08-26T23:06:50.487Z,21.20
2022-08-26T23:09:19.162Z,21.10
2022-08-26T23:11:48.806Z,21.00
2022-08-26T23:14:18.052Z,21.00
2022-08-26T23:16:46.083Z,20.90
2022-08-26T23:19:15.630Z,20.90
2022-08-26T23:21:43.900Z,20.90
2022-08-26T23:24:14.029Z,20.90
2022-08-26T23:26:42.972Z,20.90
2022-08-26T23:29:13.465Z,20.80
2022-08-26T23:31:42.547Z,20.80
2022-08-26T23:34:29.423Z,20.90
2022-08-26T23:36:58.903Z,20.80
2022-08-26T23:39:28.292Z,20.80
2022-08-26T23:41:56.823Z,20.80
2022-08-26T23:44:26.432Z,20.80
2022-08-26T23:46:54.410Z,20.80
2022-08-26T23:49:22.384Z,20.80
2022-08-26T23:52:07.764Z,20.80
2022-08-26T23:54:37.457Z,20.80
2022-08-26T23:57:06.451Z,20.80
2022-08-26T23:59:35.099Z,20.80
